Terminal Aerodrome Forecast
Issued by NWS

Home | Current Version | Previous Version | Text Only | Print | Product List | Glossary On
Versions: 1 2 3 4 5 6 7 8 9 10 11 12
000
FTUS46 KMFR 291146
TAFLMT
TAF
KLMT 291146Z 2912/3012 VRB03KT P6SM SCT200
     FM292200 24007KT P6SM VCTS SCT060CB BKN150
     FM300100 29010KT P6SM VCTS SCT050CB BKN150
     FM300600 VRB03KT P6SM SCT150=

USA.gov is the U.S. government's official web portal to all federal, state and local government web resources and services.